createdAt,value
2018-06-08T00:00:01.636Z,19.47
2018-06-08T00:02:31.750Z,19.49
2018-06-08T00:05:01.812Z,19.52
2018-06-08T00:07:32.031Z,19.51
2018-06-08T00:10:02.207Z,19.52
2018-06-08T00:12:32.360Z,19.51
2018-06-08T00:15:02.552Z,19.47
2018-06-08T00:17:32.586Z,19.38
2018-06-08T00:20:02.617Z,19.37
2018-06-08T00:22:32.797Z,19.29
2018-06-08T00:25:02.966Z,19.23
2018-06-08T00:27:33.275Z,19.19
2018-06-08T00:30:03.390Z,19.20
2018-06-08T00:32:33.538Z,19.20
2018-06-08T00:35:03.737Z,19.23
2018-06-08T00:37:34.362Z,19.27
2018-06-08T00:40:04.891Z,19.35
2018-06-08T00:42:35.322Z,19.37
2018-06-08T00:45:05.956Z,19.40
2018-06-08T00:47:36.755Z,19.42
2018-06-08T00:50:06.725Z,19.43
2018-06-08T00:52:36.829Z,19.44
2018-06-08T00:55:07.374Z,19.43
2018-06-08T00:57:37.826Z,19.46
2018-06-08T01:00:08.071Z,19.46
2018-06-08T01:02:38.539Z,19.46
2018-06-08T01:05:08.598Z,19.43
2018-06-08T01:07:38.877Z,19.35
2018-06-08T01:10:09.159Z,19.35
2018-06-08T01:12:39.485Z,19.35
2018-06-08T01:15:09.884Z,19.24
2018-06-08T01:17:40.169Z,19.27
2018-06-08T01:20:10.717Z,19.15
2018-06-08T01:22:41.052Z,19.13
2018-06-08T01:25:11.601Z,19.09
2018-06-08T01:27:41.886Z,19.13
2018-06-08T01:30:12.271Z,19.07
2018-06-08T01:32:42.440Z,19.03
2018-06-08T01:35:12.681Z,19.07
2018-06-08T01:37:43.066Z,19.10
2018-06-08T01:40:13.263Z,19.06
2018-06-08T01:42:43.459Z,19.04
2018-06-08T01:45:13.698Z,18.94
2018-06-08T01:47:43.853Z,18.94
2018-06-08T01:50:14.218Z,18.89
2018-06-08T01:52:44.349Z,18.81
2018-06-08T01:55:15.051Z,18.70
2018-06-08T01:57:45.174Z,18.72
2018-06-08T02:00:15.473Z,18.71
2018-06-08T02:02:45.758Z,18.67
2018-06-08T02:05:15.839Z,18.63
2018-06-08T02:07:46.206Z,18.61
2018-06-08T02:10:16.552Z,18.60
2018-06-08T02:12:46.592Z,18.60
2018-06-08T02:15:16.838Z,18.60
2018-06-08T02:17:46.841Z,18.62
2018-06-08T02:20:16.952Z,18.64
2018-06-08T02:22:47.123Z,18.65
2018-06-08T02:25:17.511Z,18.65
2018-06-08T02:27:47.621Z,18.67
2018-06-08T02:30:17.768Z,18.64
2018-06-08T02:32:47.779Z,18.65
2018-06-08T02:35:17.711Z,18.62
2018-06-08T02:37:48.004Z,18.64
2018-06-08T02:40:18.160Z,18.60
2018-06-08T02:42:48.740Z,18.60
2018-06-08T02:45:19.187Z,18.64
2018-06-08T02:47:49.815Z,18.63
2018-06-08T02:50:19.877Z,18.67
2018-06-08T02:52:50.039Z,18.73
2018-06-08T02:55:20.087Z,18.74
2018-06-08T02:57:50.267Z,18.74
2018-06-08T03:00:20.279Z,18.71
2018-06-08T03:02:50.529Z,18.77
2018-06-08T03:05:20.833Z,18.75
2018-06-08T03:07:51.093Z,18.75
2018-06-08T03:10:21.641Z,18.83
2018-06-08T03:12:51.936Z,18.83
2018-06-08T03:15:22.222Z,18.83
2018-06-08T03:17:52.121Z,18.81
2018-06-08T03:20:22.511Z,18.74
2018-06-08T03:22:52.416Z,18.77
2018-06-08T03:25:22.568Z,18.75
2018-06-08T03:27:52.564Z,18.81
2018-06-08T03:30:22.697Z,18.86
2018-06-08T03:32:53.112Z,18.84
2018-06-08T03:35:24.055Z,18.77
2018-06-08T03:37:54.167Z,18.77
2018-06-08T03:40:24.546Z,18.78
2018-06-08T03:42:54.629Z,18.86
2018-06-08T03:45:24.754Z,18.91
2018-06-08T03:47:54.970Z,18.98
2018-06-08T03:50:24.990Z,18.96
2018-06-08T03:52:54.992Z,18.99
2018-06-08T03:55:25.311Z,19.00
2018-06-08T03:57:55.688Z,19.02
2018-06-08T04:00:25.962Z,19.05
2018-06-08T04:02:56.087Z,19.11
2018-06-08T04:05:26.035Z,19.17
2018-06-08T04:07:56.325Z,19.17
2018-06-08T04:10:26.522Z,19.26
2018-06-08T04:12:56.860Z,19.27
2018-06-08T04:15:27.253Z,19.30
2018-06-08T04:17:57.451Z,19.37
2018-06-08T04:20:28.103Z,19.42
2018-06-08T04:22:58.283Z,19.42
2018-06-08T04:25:28.548Z,19.45
2018-06-08T04:27:58.731Z,19.44
2018-06-08T04:30:28.843Z,19.47
2018-06-08T04:32:59.003Z,19.45
2018-06-08T04:35:29.385Z,19.51
2018-06-08T04:37:59.715Z,19.53
2018-06-08T04:40:30.257Z,19.58
2018-06-08T04:43:01.371Z,19.69
2018-06-08T04:45:31.559Z,19.81
2018-06-08T04:48:01.625Z,19.83
2018-06-08T04:50:32.051Z,19.89
2018-06-08T04:53:02.126Z,19.96
2018-06-08T04:55:32.515Z,20.05
2018-06-08T04:58:02.751Z,20.04
2018-06-08T05:00:33.151Z,20.05
2018-06-08T05:03:03.371Z,20.06
2018-06-08T05:05:33.552Z,20.09
2018-06-08T05:08:03.545Z,20.16
2018-06-08T05:10:33.934Z,20.21
2018-06-08T05:13:04.001Z,20.23
2018-06-08T05:15:34.497Z,20.28
2018-06-08T05:18:04.610Z,20.32
2018-06-08T05:20:34.721Z,20.28
2018-06-08T05:23:04.829Z,20.35
2018-06-08T05:25:34.978Z,20.43
2018-06-08T05:28:05.103Z,20.47
2018-06-08T05:30:35.419Z,20.53
2018-06-08T05:33:05.371Z,20.40
2018-06-08T05:35:35.627Z,20.56
2018-06-08T05:38:05.841Z,20.68
2018-06-08T05:40:36.628Z,20.77
2018-06-08T05:43:06.736Z,20.86
2018-06-08T05:45:37.042Z,20.85
2018-06-08T05:48:07.352Z,20.82
2018-06-08T05:50:37.799Z,20.92
2018-06-08T05:53:08.071Z,20.52
2018-06-08T05:55:38.381Z,20.59
2018-06-08T05:58:09.135Z,20.70
2018-06-08T06:00:39.466Z,20.74
2018-06-08T06:03:10.046Z,20.69
2018-06-08T06:05:40.530Z,20.63
2018-06-08T06:08:10.930Z,20.66
2018-06-08T06:10:41.547Z,20.74
2018-06-08T06:13:11.918Z,20.71
2018-06-08T06:15:42.280Z,20.83
2018-06-08T06:18:12.652Z,20.83
2018-06-08T06:20:43.195Z,20.84
2018-06-08T06:23:14.131Z,21.06
2018-06-08T06:25:44.549Z,21.09
2018-06-08T06:28:14.548Z,21.14
2018-06-08T06:30:44.882Z,21.06
2018-06-08T06:33:15.354Z,21.01
2018-06-08T06:35:45.840Z,21.05
2018-06-08T06:38:15.976Z,21.20
2018-06-08T06:40:46.189Z,21.26
2018-06-08T06:43:16.349Z,21.37
2018-06-08T06:45:46.859Z,21.19
2018-06-08T06:48:17.226Z,21.21
2018-06-08T06:50:47.785Z,21.35
2018-06-08T06:53:18.156Z,21.26
2018-06-08T06:55:48.462Z,21.13
2018-06-08T06:58:18.990Z,21.20
2018-06-08T07:00:49.460Z,21.05
2018-06-08T07:03:19.685Z,21.09
2018-06-08T07:05:49.923Z,21.28
2018-06-08T07:08:20.328Z,21.24
2018-06-08T07:10:50.590Z,21.31
2018-06-08T07:13:20.931Z,21.50
2018-06-08T07:15:51.946Z,21.58
2018-06-08T07:18:22.369Z,21.58
2018-06-08T07:20:52.806Z,21.64
2018-06-08T07:23:23.261Z,21.57
2018-06-08T07:25:53.707Z,21.64
2018-06-08T07:28:23.900Z,21.67
2018-06-08T07:30:54.283Z,21.27
2018-06-08T07:33:24.673Z,21.67
2018-06-08T07:35:54.819Z,21.86
2018-06-08T07:38:24.978Z,22.12
2018-06-08T07:40:55.171Z,22.23
2018-06-08T07:43:25.388Z,22.35
2018-06-08T07:45:55.533Z,22.30
2018-06-08T07:48:25.710Z,22.46
2018-06-08T07:50:55.960Z,22.43
2018-06-08T07:53:26.203Z,22.38
2018-06-08T07:55:56.541Z,22.42
2018-06-08T07:58:27.173Z,22.54
2018-06-08T08:00:57.368Z,22.58
2018-06-08T08:03:27.708Z,22.76
2018-06-08T08:05:57.818Z,22.85
2018-06-08T08:08:27.806Z,22.95
2018-06-08T08:10:58.036Z,22.91
2018-06-08T08:13:27.847Z,22.52
2018-06-08T08:15:57.859Z,22.58
2018-06-08T08:18:27.817Z,22.58
2018-06-08T08:20:57.706Z,22.58
2018-06-08T08:23:27.718Z,22.80
2018-06-08T08:25:57.613Z,22.84
2018-06-08T08:28:27.491Z,23.17
2018-06-08T08:30:57.409Z,22.98
2018-06-08T08:33:27.289Z,23.18
2018-06-08T08:35:57.289Z,23.09
2018-06-08T08:38:27.102Z,22.98
2018-06-08T08:40:56.945Z,23.30
2018-06-08T08:43:26.777Z,23.61
2018-06-08T08:45:56.712Z,23.84
2018-06-08T08:48:26.470Z,24.07
2018-06-08T08:50:56.427Z,24.21
2018-06-08T08:53:26.219Z,24.33
2018-06-08T08:55:56.127Z,24.35
2018-06-08T08:58:26.092Z,24.33
2018-06-08T09:00:56.023Z,24.03
2018-06-08T09:03:25.839Z,24.26
2018-06-08T09:05:56.607Z,24.54
2018-06-08T09:08:26.419Z,24.66
2018-06-08T09:10:56.349Z,24.42
2018-06-08T09:13:26.205Z,24.15
2018-06-08T09:15:56.125Z,24.49
2018-06-08T09:18:25.927Z,23.90
2018-06-08T09:20:55.952Z,24.24
2018-06-08T09:23:25.803Z,24.35
2018-06-08T09:25:55.715Z,24.69
2018-06-08T09:28:25.866Z,24.92
2018-06-08T09:30:55.748Z,24.69
2018-06-08T09:33:25.708Z,24.84
2018-06-08T09:35:55.936Z,24.98
2018-06-08T09:38:26.154Z,25.32
2018-06-08T09:40:56.080Z,25.69
2018-06-08T09:43:26.005Z,25.92
2018-06-08T09:45:56.109Z,26.08
2018-06-08T09:48:26.315Z,25.73
2018-06-08T09:50:56.348Z,26.09
2018-06-08T09:53:26.276Z,26.18
2018-06-08T09:55:56.225Z,26.39
2018-06-08T09:58:25.994Z,26.71
2018-06-08T10:00:55.897Z,26.95
2018-06-08T10:03:25.698Z,27.13
2018-06-08T10:05:55.489Z,26.72
2018-06-08T10:08:25.940Z,26.82
2018-06-08T10:10:55.958Z,26.81
2018-06-08T10:13:25.834Z,26.81
2018-06-08T10:15:55.867Z,26.80
2018-06-08T10:18:25.661Z,27.04
2018-06-08T10:20:55.599Z,27.20
2018-06-08T10:23:25.360Z,27.33
2018-06-08T10:25:55.306Z,27.54
2018-06-08T10:28:26.138Z,27.34
2018-06-08T10:30:56.237Z,27.40
2018-06-08T10:33:26.035Z,27.78
2018-06-08T10:35:55.908Z,27.47
2018-06-08T10:38:25.777Z,27.02
2018-06-08T10:40:55.613Z,27.11
2018-06-08T10:43:25.402Z,26.89
2018-06-08T10:45:55.250Z,26.61
2018-06-08T10:48:25.283Z,27.21
2018-06-08T10:50:55.075Z,27.45
2018-06-08T10:53:24.848Z,27.95
2018-06-08T10:55:54.734Z,28.37
2018-06-08T10:58:24.509Z,28.39
2018-06-08T11:00:54.279Z,28.68
2018-06-08T11:03:24.074Z,28.94
2018-06-08T11:05:53.965Z,29.07
2018-06-08T11:08:23.977Z,29.08
2018-06-08T11:10:53.864Z,28.99
2018-06-08T11:13:23.756Z,28.66
2018-06-08T11:15:53.598Z,28.99
2018-06-08T11:18:23.686Z,29.42
2018-06-08T11:20:53.626Z,29.44
2018-06-08T11:23:23.558Z,29.39
2018-06-08T11:25:53.571Z,29.55
2018-06-08T11:28:23.432Z,29.29
2018-06-08T11:30:53.642Z,29.18
2018-06-08T11:33:23.436Z,29.39
2018-06-08T11:35:53.438Z,29.64
2018-06-08T11:38:23.231Z,29.87
2018-06-08T11:40:53.098Z,30.09
2018-06-08T11:43:23.604Z,30.58
2018-06-08T11:45:53.734Z,30.13
2018-06-08T11:48:23.678Z,29.93
2018-06-08T11:50:53.742Z,30.52
2018-06-08T11:53:23.664Z,30.96
2018-06-08T11:55:53.723Z,31.24
2018-06-08T11:58:23.532Z,30.63
2018-06-08T12:00:53.335Z,30.80
2018-06-08T12:03:23.178Z,30.87
2018-06-08T12:05:53.133Z,30.81
2018-06-08T12:08:22.943Z,30.89
2018-06-08T12:10:52.804Z,31.17
2018-06-08T12:13:22.641Z,30.95
2018-06-08T12:15:52.388Z,29.91
2018-06-08T12:18:22.226Z,30.60
2018-06-08T12:20:52.331Z,30.92
2018-06-08T12:23:22.635Z,30.29
2018-06-08T12:25:53.091Z,30.37
2018-06-08T12:28:23.196Z,30.63
2018-06-08T12:30:53.418Z,30.88
2018-06-08T12:33:23.775Z,30.64
2018-06-08T12:35:53.870Z,30.99
2018-06-08T12:38:24.122Z,30.73
2018-06-08T12:40:54.407Z,31.11
2018-06-08T12:43:24.588Z,31.08
2018-06-08T12:45:54.879Z,31.34
2018-06-08T12:48:25.126Z,31.28
2018-06-08T12:50:55.369Z,31.75
2018-06-08T12:53:25.567Z,31.65
2018-06-08T12:55:56.591Z,31.80
2018-06-08T12:58:26.713Z,31.79
2018-06-08T13:00:56.902Z,30.92
2018-06-08T13:03:27.027Z,31.19
2018-06-08T13:05:57.426Z,31.57
2018-06-08T13:08:27.444Z,31.68
2018-06-08T13:10:57.862Z,31.45
2018-06-08T13:13:28.062Z,31.12
2018-06-08T13:15:58.147Z,30.93
2018-06-08T13:18:28.911Z,31.23
2018-06-08T13:20:59.235Z,31.68
2018-06-08T13:23:29.310Z,31.91
2018-06-08T13:25:59.600Z,31.41
2018-06-08T13:28:30.042Z,31.92
2018-06-08T13:31:00.335Z,32.28
2018-06-08T13:33:30.407Z,31.74
2018-06-08T13:36:00.631Z,31.34
2018-06-08T13:38:30.644Z,32.21
2018-06-08T13:41:00.879Z,32.58
2018-06-08T13:43:31.234Z,32.83
2018-06-08T13:46:01.554Z,32.75
2018-06-08T13:48:31.709Z,31.72
2018-06-08T13:51:01.924Z,31.91
2018-06-08T13:53:32.146Z,31.78
2018-06-08T13:56:02.392Z,31.77
2018-06-08T13:58:32.627Z,31.88
2018-06-08T14:01:02.805Z,32.44
2018-06-08T14:03:32.866Z,32.78
2018-06-08T14:06:03.042Z,33.08
2018-06-08T14:08:33.250Z,32.62
2018-06-08T14:11:03.430Z,32.27
2018-06-08T14:13:33.706Z,32.88
2018-06-08T14:16:04.197Z,33.00
2018-06-08T14:18:34.398Z,33.34
2018-06-08T14:21:04.663Z,33.40
2018-06-08T14:23:34.923Z,33.48
2018-06-08T14:26:05.366Z,33.58
2018-06-08T14:28:35.636Z,33.42
2018-06-08T14:31:05.982Z,33.55
2018-06-08T14:33:36.173Z,33.95
2018-06-08T14:36:06.273Z,34.34
2018-06-08T14:38:36.317Z,34.39
2018-06-08T14:41:06.414Z,33.78
2018-06-08T14:43:37.215Z,33.47
2018-06-08T14:46:07.484Z,34.45
2018-06-08T14:48:37.950Z,35.27
2018-06-08T14:51:08.423Z,35.51
2018-06-08T14:53:38.949Z,34.44
2018-06-08T14:56:09.310Z,35.83
2018-06-08T14:58:39.549Z,37.32
2018-06-08T15:01:09.543Z,36.95
2018-06-08T15:03:39.539Z,36.32
2018-06-08T15:06:10.387Z,35.45
2018-06-08T15:08:40.902Z,34.19
2018-06-08T15:11:11.188Z,33.97
2018-06-08T15:13:41.857Z,35.43
2018-06-08T15:16:12.282Z,36.35
2018-06-08T15:18:42.515Z,36.64
2018-06-08T15:21:12.949Z,35.74
2018-06-08T15:23:43.119Z,36.43
2018-06-08T15:26:13.379Z,37.65
2018-06-08T15:28:43.906Z,38.70
2018-06-08T15:31:14.351Z,38.88
2018-06-08T15:33:45.173Z,39.34
2018-06-08T15:36:16.640Z,39.21
2018-06-08T15:38:47.062Z,39.47
2018-06-08T15:41:17.367Z,39.38
2018-06-08T15:43:47.462Z,39.65
2018-06-08T15:46:17.690Z,39.26
2018-06-08T15:48:47.865Z,38.71
2018-06-08T15:51:18.082Z,37.08
2018-06-08T15:53:48.373Z,36.44
2018-06-08T15:56:18.820Z,36.30
2018-06-08T15:58:48.970Z,35.50
2018-06-08T16:01:19.158Z,36.17
2018-06-08T16:03:49.464Z,36.18
2018-06-08T16:06:19.306Z,35.70
2018-06-08T16:08:49.406Z,35.78
2018-06-08T16:11:19.746Z,35.80
2018-06-08T16:13:49.830Z,35.43
2018-06-08T16:16:20.105Z,34.61
2018-06-08T16:18:50.306Z,34.92
2018-06-08T16:21:20.720Z,34.82
2018-06-08T16:23:50.952Z,34.80
2018-06-08T16:26:21.330Z,33.95
2018-06-08T16:28:51.438Z,33.52
2018-06-08T16:31:21.731Z,33.05
2018-06-08T16:33:52.451Z,32.90
2018-06-08T16:36:22.800Z,33.03
2018-06-08T16:38:52.969Z,32.23
2018-06-08T16:41:23.168Z,30.97
2018-06-08T16:43:53.380Z,31.79
2018-06-08T16:46:23.628Z,32.29
2018-06-08T16:48:53.704Z,32.31
2018-06-08T16:51:23.944Z,31.66
2018-06-08T16:53:54.290Z,31.47
2018-06-08T16:56:24.469Z,31.76
2018-06-08T16:58:54.507Z,31.01
2018-06-08T17:01:24.634Z,31.32
2018-06-08T17:03:54.922Z,31.08
2018-06-08T17:06:25.055Z,31.48
2018-06-08T17:08:55.262Z,31.29
2018-06-08T17:11:25.420Z,31.04
2018-06-08T17:13:55.626Z,30.78
2018-06-08T17:16:25.863Z,30.89
2018-06-08T17:18:56.167Z,30.80
2018-06-08T17:21:26.787Z,30.08
2018-06-08T17:23:56.952Z,30.32
2018-06-08T17:26:27.123Z,30.30
2018-06-08T17:28:57.544Z,30.33
2018-06-08T17:31:27.771Z,30.10
2018-06-08T17:33:58.050Z,29.94
2018-06-08T17:36:29.115Z,29.46
2018-06-08T17:38:59.556Z,29.32
2018-06-08T17:41:29.859Z,29.25
2018-06-08T17:44:00.150Z,29.12
2018-06-08T17:46:30.281Z,29.03
2018-06-08T17:49:00.507Z,28.65
2018-06-08T17:51:30.839Z,28.62
2018-06-08T17:54:01.007Z,28.36
2018-06-08T17:56:32.321Z,27.91
2018-06-08T17:59:02.916Z,27.82
2018-06-08T18:01:33.117Z,27.63
2018-06-08T18:04:03.349Z,27.60
2018-06-08T18:06:33.452Z,27.50
2018-06-08T18:09:04.780Z,27.52
2018-06-08T18:11:34.723Z,27.45
2018-06-08T18:14:04.822Z,27.32
2018-06-08T18:16:35.078Z,27.19
2018-06-08T18:19:05.482Z,27.06
2018-06-08T18:21:35.633Z,26.98
2018-06-08T18:24:05.782Z,26.97
2018-06-08T18:26:35.849Z,27.00
2018-06-08T18:29:05.922Z,26.95
2018-06-08T18:31:36.153Z,26.94
2018-06-08T18:34:06.313Z,26.74
2018-06-08T18:36:36.437Z,26.81
2018-06-08T18:39:08.548Z,26.69
2018-06-08T18:41:39.124Z,26.61
2018-06-08T18:44:09.249Z,26.53
2018-06-08T18:46:39.583Z,26.45
2018-06-08T18:49:09.902Z,26.43
2018-06-08T18:51:40.926Z,26.40
2018-06-08T18:54:11.066Z,26.37
2018-06-08T18:56:41.286Z,26.35
2018-06-08T18:59:11.493Z,26.30
2018-06-08T19:01:41.689Z,26.24
2018-06-08T19:04:11.843Z,26.26
2018-06-08T19:06:41.965Z,26.23
2018-06-08T19:09:12.063Z,26.21
2018-06-08T19:11:42.319Z,26.20
2018-06-08T19:14:12.442Z,26.13
2018-06-08T19:16:42.653Z,26.09
2018-06-08T19:19:13.187Z,26.05
2018-06-08T19:21:43.611Z,26.02
2018-06-08T19:24:14.282Z,26.02
2018-06-08T19:26:44.695Z,25.97
2018-06-08T19:29:15.028Z,25.94
2018-06-08T19:31:45.223Z,25.91
2018-06-08T19:34:15.522Z,25.90
2018-06-08T19:36:45.770Z,25.86
2018-06-08T19:39:16.005Z,25.82
2018-06-08T19:41:46.791Z,25.79
2018-06-08T19:44:17.123Z,25.79
2018-06-08T19:46:47.619Z,25.76
2018-06-08T19:49:18.019Z,25.74
2018-06-08T19:51:48.212Z,25.69
2018-06-08T19:54:18.334Z,25.70
2018-06-08T19:56:48.515Z,25.65
2018-06-08T19:59:18.744Z,25.59
2018-06-08T20:01:48.878Z,25.58
2018-06-08T20:04:19.174Z,25.53
2018-06-08T20:06:49.407Z,25.50
2018-06-08T20:09:19.726Z,25.44
2018-06-08T20:11:49.916Z,25.43
2018-06-08T20:14:20.066Z,25.38
2018-06-08T20:16:50.301Z,25.38
2018-06-08T20:19:20.453Z,25.35
2018-06-08T20:21:50.822Z,25.30
2018-06-08T20:24:21.021Z,25.28
2018-06-08T20:26:51.298Z,25.26
2018-06-08T20:29:21.443Z,25.25
2018-06-08T20:31:51.425Z,25.20
2018-06-08T20:34:21.499Z,25.20
2018-06-08T20:36:51.590Z,25.16
2018-06-08T20:39:21.967Z,25.08
2018-06-08T20:41:52.137Z,25.03
2018-06-08T20:44:22.507Z,25.01
2018-06-08T20:46:52.611Z,24.98
2018-06-08T20:49:22.804Z,24.98
2018-06-08T20:51:53.006Z,24.96
2018-06-08T20:54:22.944Z,24.97
2018-06-08T20:57:04.091Z,24.98
2018-06-08T20:59:33.993Z,24.91
2018-06-08T21:02:04.229Z,24.92
2018-06-08T21:04:34.530Z,24.92
2018-06-08T21:07:04.800Z,24.93
2018-06-08T21:09:34.951Z,24.89
2018-06-08T21:12:05.165Z,24.88
2018-06-08T21:14:35.791Z,24.88
2018-06-08T21:17:06.804Z,24.88
2018-06-08T21:19:37.575Z,24.85
2018-06-08T21:22:07.801Z,24.77
2018-06-08T21:24:38.156Z,24.73
2018-06-08T21:27:08.705Z,24.69
2018-06-08T21:29:39.392Z,24.63
2018-06-08T21:32:09.690Z,24.59
2018-06-08T21:34:40.039Z,24.54
2018-06-08T21:37:10.367Z,24.49
2018-06-08T21:39:40.802Z,24.47
2018-06-08T21:42:11.198Z,24.45
2018-06-08T21:44:41.525Z,24.44
2018-06-08T21:47:11.610Z,24.42
2018-06-08T21:49:41.957Z,24.35
2018-06-08T21:52:12.384Z,24.30
2018-06-08T21:54:42.953Z,24.25
2018-06-08T21:57:18.644Z,24.25
2018-06-08T21:59:52.028Z,24.23
2018-06-08T22:02:22.362Z,24.22
2018-06-08T22:04:52.965Z,24.22
2018-06-08T22:07:23.407Z,24.19
2018-06-08T22:09:54.467Z,24.17
2018-06-08T22:12:24.578Z,24.17
2018-06-08T22:14:54.868Z,24.13
2018-06-08T22:17:24.982Z,24.05
2018-06-08T22:19:55.210Z,24.03
2018-06-08T22:22:25.533Z,24.00
2018-06-08T22:24:55.739Z,24.01
2018-06-08T22:27:25.972Z,23.95
2018-06-08T22:29:56.181Z,23.93
2018-06-08T22:32:26.335Z,23.86
2018-06-08T22:34:56.951Z,23.82
2018-06-08T22:37:27.263Z,23.78
2018-06-08T22:39:57.377Z,23.72
2018-06-08T22:42:27.609Z,23.63
2018-06-08T22:44:57.838Z,23.55
2018-06-08T22:47:28.362Z,23.56
2018-06-08T22:49:58.617Z,23.45
2018-06-08T22:52:29.118Z,23.40
2018-06-08T22:54:59.326Z,23.41
2018-06-08T22:57:29.643Z,23.44
2018-06-08T22:59:59.694Z,23.47
2018-06-08T23:02:29.818Z,23.41
2018-06-08T23:04:59.793Z,23.41
2018-06-08T23:07:30.051Z,23.40
2018-06-08T23:10:00.174Z,23.38
2018-06-08T23:12:30.187Z,23.39
2018-06-08T23:15:00.521Z,23.40
2018-06-08T23:17:30.731Z,23.42
2018-06-08T23:20:00.980Z,23.39
2018-06-08T23:22:31.378Z,23.18
2018-06-08T23:25:01.312Z,22.96
2018-06-08T23:27:31.597Z,22.62
2018-06-08T23:30:01.828Z,22.09
2018-06-08T23:32:32.480Z,21.79
2018-06-08T23:35:02.443Z,21.64
2018-06-08T23:37:34.358Z,21.55
2018-06-08T23:42:39.821Z,21.29
2018-06-08T23:45:09.938Z,21.34
2018-06-08T23:47:40.157Z,21.33
2018-06-08T23:50:10.776Z,21.23
2018-06-08T23:52:41.006Z,21.20
2018-06-08T23:55:11.647Z,21.18
2018-06-08T23:57:41.654Z,21.12
